sensor_id;sensor_type;location;lat;lon;timestamp;temperature;humidity
13472;DHT22;6808;49.444;11.034;2023-02-28T00:00:07;-1.40;94.60
13472;DHT22;6808;49.444;11.034;2023-02-28T00:02:37;-1.40;94.70
13472;DHT22;6808;49.444;11.034;2023-02-28T00:05:04;-1.40;94.70
13472;DHT22;6808;49.444;11.034;2023-02-28T00:07:31;-1.40;94.80
13472;DHT22;6808;49.444;11.034;2023-02-28T00:09:57;-1.40;94.80
13472;DHT22;6808;49.444;11.034;2023-02-28T00:12:24;-1.40;94.80
13472;DHT22;6808;49.444;11.034;2023-02-28T00:14:50;-1.40;94.90
13472;DHT22;6808;49.444;11.034;2023-02-28T00:17:16;-1.50;95.20
13472;DHT22;6808;49.444;11.034;2023-02-28T00:19:47;-1.50;95.10
13472;DHT22;6808;49.444;11.034;2023-02-28T00:22:12;-1.50;95.10
13472;DHT22;6808;49.444;11.034;2023-02-28T00:24:38;-1.50;95.20
13472;DHT22;6808;49.444;11.034;2023-02-28T00:27:03;-1.50;95.20
13472;DHT22;6808;49.444;11.034;2023-02-28T00:29:29;-1.50;95.30
13472;DHT22;6808;49.444;11.034;2023-02-28T00:31:54;-1.50;95.30
13472;DHT22;6808;49.444;11.034;2023-02-28T00:34:22;-1.50;95.30
13472;DHT22;6808;49.444;11.034;2023-02-28T00:36:48;-1.50;95.20
13472;DHT22;6808;49.444;11.034;2023-02-28T00:39:16;-1.50;95.30
13472;DHT22;6808;49.444;11.034;2023-02-28T00:41:42;-1.50;95.30
13472;DHT22;6808;49.444;11.034;2023-02-28T00:44:07;-1.50;95.40
13472;DHT22;6808;49.444;11.034;2023-02-28T00:46:33;-1.60;95.30
13472;DHT22;6808;49.444;11.034;2023-02-28T00:48:59;-1.60;95.50
13472;DHT22;6808;49.444;11.034;2023-02-28T00:51:24;-1.60;95.50
13472;DHT22;6808;49.444;11.034;2023-02-28T00:53:50;-1.60;95.50
13472;DHT22;6808;49.444;11.034;2023-02-28T00:56:15;-1.60;95.50
13472;DHT22;6808;49.444;11.034;2023-02-28T00:58:41;-1.60;95.50
13472;DHT22;6808;49.444;11.034;2023-02-28T01:01:12;-1.50;95.60
13472;DHT22;6808;49.444;11.034;2023-02-28T01:03:38;-1.50;95.50
13472;DHT22;6808;49.444;11.034;2023-02-28T01:06:04;-1.60;95.50
13472;DHT22;6808;49.444;11.034;2023-02-28T01:08:30;-1.60;95.60
13472;DHT22;6808;49.444;11.034;2023-02-28T01:10:55;-1.50;95.70
13472;DHT22;6808;49.444;11.034;2023-02-28T01:13:21;-1.60;95.80
13472;DHT22;6808;49.444;11.034;2023-02-28T01:15:55;-1.60;95.90
13472;DHT22;6808;49.444;11.034;2023-02-28T01:18:21;-1.60;96.00
13472;DHT22;6808;49.444;11.034;2023-02-28T01:20:47;-1.60;95.90
13472;DHT22;6808;49.444;11.034;2023-02-28T01:23:13;-1.60;95.90
13472;DHT22;6808;49.444;11.034;2023-02-28T01:25:45;-1.60;95.90
13472;DHT22;6808;49.444;11.034;2023-02-28T01:28:10;-1.60;95.90
13472;DHT22;6808;49.444;11.034;2023-02-28T01:30:36;-1.60;95.90
13472;DHT22;6808;49.444;11.034;2023-02-28T01:33:02;-1.60;95.90
13472;DHT22;6808;49.444;11.034;2023-02-28T01:35:27;-1.60;95.90
13472;DHT22;6808;49.444;11.034;2023-02-28T01:37:53;-1.60;96.00
13472;DHT22;6808;49.444;11.034;2023-02-28T01:40:19;-1.60;96.00
13472;DHT22;6808;49.444;11.034;2023-02-28T01:42:44;-1.60;96.10
13472;DHT22;6808;49.444;11.034;2023-02-28T01:45:26;-1.60;96.10
13472;DHT22;6808;49.444;11.034;2023-02-28T01:47:55;-1.60;96.10
13472;DHT22;6808;49.444;11.034;2023-02-28T01:50:28;-1.60;96.10
13472;DHT22;6808;49.444;11.034;2023-02-28T01:52:57;-1.60;96.20
13472;DHT22;6808;49.444;11.034;2023-02-28T01:55:26;-1.60;96.20
13472;DHT22;6808;49.444;11.034;2023-02-28T01:57:57;-1.70;96.30
13472;DHT22;6808;49.444;11.034;2023-02-28T02:00:26;-1.70;96.40
13472;DHT22;6808;49.444;11.034;2023-02-28T02:02:58;-1.70;96.40
13472;DHT22;6808;49.444;11.034;2023-02-28T02:05:27;-1.70;96.40
13472;DHT22;6808;49.444;11.034;2023-02-28T02:08:42;-1.70;96.40
13472;DHT22;6808;49.444;11.034;2023-02-28T02:10:54;-1.70;96.40
13472;DHT22;6808;49.444;11.034;2023-02-28T02:19:46;-1.70;96.40
13472;DHT22;6808;49.444;11.034;2023-02-28T02:22:45;-1.70;96.50
13472;DHT22;6808;49.444;11.034;2023-02-28T02:28:22;-1.70;96.70
13472;DHT22;6808;49.444;11.034;2023-02-28T02:36:35;-1.80;96.70
13472;DHT22;6808;49.444;11.034;2023-02-28T02:39:38;-1.70;96.70
13472;DHT22;6808;49.444;11.034;2023-02-28T02:42:31;-1.80;96.70
13472;DHT22;6808;49.444;11.034;2023-02-28T02:45:06;-1.70;96.90
13472;DHT22;6808;49.444;11.034;2023-02-28T02:47:33;-1.80;96.80
13472;DHT22;6808;49.444;11.034;2023-02-28T02:50:04;-1.80;96.90
13472;DHT22;6808;49.444;11.034;2023-02-28T02:52:36;-1.80;96.90
13472;DHT22;6808;49.444;11.034;2023-02-28T02:55:05;-1.80;97.10
13472;DHT22;6808;49.444;11.034;2023-02-28T02:57:43;-1.80;97.10
13472;DHT22;6808;49.444;11.034;2023-02-28T03:00:11;-1.80;97.10
13472;DHT22;6808;49.444;11.034;2023-02-28T03:02:38;-1.80;97.10
13472;DHT22;6808;49.444;11.034;2023-02-28T03:05:12;-1.80;97.00
13472;DHT22;6808;49.444;11.034;2023-02-28T03:07:39;-1.90;97.00
13472;DHT22;6808;49.444;11.034;2023-02-28T03:10:30;-1.90;97.10
13472;DHT22;6808;49.444;11.034;2023-02-28T03:16:27;-1.90;97.20
13472;DHT22;6808;49.444;11.034;2023-02-28T03:19:03;-1.90;97.30
13472;DHT22;6808;49.444;11.034;2023-02-28T03:21:43;-1.90;97.30
13472;DHT22;6808;49.444;11.034;2023-02-28T03:26:46;-1.90;97.50
13472;DHT22;6808;49.444;11.034;2023-02-28T03:29:28;-1.90;97.50
13472;DHT22;6808;49.444;11.034;2023-02-28T03:32:02;-1.90;97.50
13472;DHT22;6808;49.444;11.034;2023-02-28T03:34:34;-1.90;97.50
13472;DHT22;6808;49.444;11.034;2023-02-28T03:37:05;-1.90;97.60
13472;DHT22;6808;49.444;11.034;2023-02-28T03:39:49;-1.90;97.60
13472;DHT22;6808;49.444;11.034;2023-02-28T03:42:22;-1.90;97.60
13472;DHT22;6808;49.444;11.034;2023-02-28T03:45:02;-1.90;97.60
13472;DHT22;6808;49.444;11.034;2023-02-28T03:47:37;-1.90;97.60
13472;DHT22;6808;49.444;11.034;2023-02-28T03:50:11;-1.90;97.60
13472;DHT22;6808;49.444;11.034;2023-02-28T03:52:43;-1.90;97.60
13472;DHT22;6808;49.444;11.034;2023-02-28T03:55:12;-1.90;97.80
13472;DHT22;6808;49.444;11.034;2023-02-28T03:57:44;-1.90;97.70
13472;DHT22;6808;49.444;11.034;2023-02-28T04:00:24;-1.90;97.60
13472;DHT22;6808;49.444;11.034;2023-02-28T04:02:53;-1.90;97.60
13472;DHT22;6808;49.444;11.034;2023-02-28T04:05:21;-1.90;97.70
13472;DHT22;6808;49.444;11.034;2023-02-28T04:07:47;-1.90;97.70
13472;DHT22;6808;49.444;11.034;2023-02-28T04:10:14;-1.90;97.70
13472;DHT22;6808;49.444;11.034;2023-02-28T04:12:41;-1.90;97.70
13472;DHT22;6808;49.444;11.034;2023-02-28T04:15:08;-1.90;97.60
13472;DHT22;6808;49.444;11.034;2023-02-28T04:17:33;-1.90;97.60
13472;DHT22;6808;49.444;11.034;2023-02-28T04:19:59;-1.90;97.80
13472;DHT22;6808;49.444;11.034;2023-02-28T04:22:24;-1.90;97.70
13472;DHT22;6808;49.444;11.034;2023-02-28T04:24:53;-1.60;97.90
13472;DHT22;6808;49.444;11.034;2023-02-28T04:27:21;-1.90;97.70
13472;DHT22;6808;49.444;11.034;2023-02-28T04:29:47;-1.90;97.70
13472;DHT22;6808;49.444;11.034;2023-02-28T04:32:12;-1.90;97.70
13472;DHT22;6808;49.444;11.034;2023-02-28T04:34:38;-1.90;97.60
13472;DHT22;6808;49.444;11.034;2023-02-28T04:37:04;-1.90;97.80
13472;DHT22;6808;49.444;11.034;2023-02-28T04:39:30;-1.90;97.60
13472;DHT22;6808;49.444;11.034;2023-02-28T04:41:56;-1.90;97.60
13472;DHT22;6808;49.444;11.034;2023-02-28T04:44:22;-1.90;97.70
13472;DHT22;6808;49.444;11.034;2023-02-28T04:46:49;-1.90;98.10
13472;DHT22;6808;49.444;11.034;2023-02-28T04:49:15;-1.90;97.70
13472;DHT22;6808;49.444;11.034;2023-02-28T04:51:41;-1.90;97.60
13472;DHT22;6808;49.444;11.034;2023-02-28T04:54:07;-1.90;97.70
13472;DHT22;6808;49.444;11.034;2023-02-28T04:56:33;-1.90;97.60
13472;DHT22;6808;49.444;11.034;2023-02-28T04:58:59;-1.90;97.70
13472;DHT22;6808;49.444;11.034;2023-02-28T05:01:29;-1.90;97.60
13472;DHT22;6808;49.444;11.034;2023-02-28T05:03:58;-1.90;97.60
13472;DHT22;6808;49.444;11.034;2023-02-28T05:06:25;-1.90;97.60
13472;DHT22;6808;49.444;11.034;2023-02-28T05:08:52;-1.90;97.70
13472;DHT22;6808;49.444;11.034;2023-02-28T05:11:26;-2.00;97.70
13472;DHT22;6808;49.444;11.034;2023-02-28T05:13:52;-1.90;97.80
13472;DHT22;6808;49.444;11.034;2023-02-28T05:16:19;-1.90;97.80
13472;DHT22;6808;49.444;11.034;2023-02-28T05:18:45;-1.90;97.80
13472;DHT22;6808;49.444;11.034;2023-02-28T05:21:40;-1.90;97.70
13472;DHT22;6808;49.444;11.034;2023-02-28T05:24:11;-2.00;97.70
13472;DHT22;6808;49.444;11.034;2023-02-28T05:26:39;-2.00;97.70
13472;DHT22;6808;49.444;11.034;2023-02-28T05:29:05;-2.00;97.90
13472;DHT22;6808;49.444;11.034;2023-02-28T05:31:32;-2.00;97.90
13472;DHT22;6808;49.444;11.034;2023-02-28T05:33:57;-2.00;97.90
13472;DHT22;6808;49.444;11.034;2023-02-28T05:36:23;-2.00;97.90
13472;DHT22;6808;49.444;11.034;2023-02-28T05:38:50;-1.90;97.90
13472;DHT22;6808;49.444;11.034;2023-02-28T05:41:17;-2.00;97.90
13472;DHT22;6808;49.444;11.034;2023-02-28T05:43:49;-2.00;97.90
13472;DHT22;6808;49.444;11.034;2023-02-28T05:46:15;-2.00;98.00
13472;DHT22;6808;49.444;11.034;2023-02-28T05:48:45;-2.00;98.00
13472;DHT22;6808;49.444;11.034;2023-02-28T05:51:13;-2.00;98.00
13472;DHT22;6808;49.444;11.034;2023-02-28T05:53:38;-2.00;98.00
13472;DHT22;6808;49.444;11.034;2023-02-28T05:56:04;-2.00;97.90
13472;DHT22;6808;49.444;11.034;2023-02-28T05:58:31;-2.00;98.00
13472;DHT22;6808;49.444;11.034;2023-02-28T06:00:58;-2.00;97.90
13472;DHT22;6808;49.444;11.034;2023-02-28T06:03:26;-2.00;98.00
13472;DHT22;6808;49.444;11.034;2023-02-28T06:05:52;-1.70;98.20
13472;DHT22;6808;49.444;11.034;2023-02-28T06:08:23;-2.00;98.10
13472;DHT22;6808;49.444;11.034;2023-02-28T06:10:49;-2.00;98.00
13472;DHT22;6808;49.444;11.034;2023-02-28T06:13:14;-2.00;98.00
13472;DHT22;6808;49.444;11.034;2023-02-28T06:15:40;-2.00;98.00
13472;DHT22;6808;49.444;11.034;2023-02-28T06:18:06;-2.00;98.00
13472;DHT22;6808;49.444;11.034;2023-02-28T06:20:32;-2.00;98.00
13472;DHT22;6808;49.444;11.034;2023-02-28T06:22:57;-2.00;98.00
13472;DHT22;6808;49.444;11.034;2023-02-28T06:25:24;-2.00;97.90
13472;DHT22;6808;49.444;11.034;2023-02-28T06:27:51;-2.00;97.90
13472;DHT22;6808;49.444;11.034;2023-02-28T06:30:17;-1.90;97.90
13472;DHT22;6808;49.444;11.034;2023-02-28T06:32:42;-2.00;97.80
13472;DHT22;6808;49.444;11.034;2023-02-28T06:35:08;-2.00;97.90
13472;DHT22;6808;49.444;11.034;2023-02-28T06:37:34;-1.90;98.00
13472;DHT22;6808;49.444;11.034;2023-02-28T06:40:00;-1.90;97.80
13472;DHT22;6808;49.444;11.034;2023-02-28T06:42:25;-1.90;97.80
13472;DHT22;6808;49.444;11.034;2023-02-28T06:44:55;-1.90;97.90
13472;DHT22;6808;49.444;11.034;2023-02-28T06:47:21;-1.90;97.80
13472;DHT22;6808;49.444;11.034;2023-02-28T06:49:47;-1.90;97.70
13472;DHT22;6808;49.444;11.034;2023-02-28T06:52:13;-1.90;97.70
13472;DHT22;6808;49.444;11.034;2023-02-28T06:54:39;-1.90;97.60
13472;DHT22;6808;49.444;11.034;2023-02-28T06:57:05;-1.90;97.70
13472;DHT22;6808;49.444;11.034;2023-02-28T06:59:32;-1.80;97.80
13472;DHT22;6808;49.444;11.034;2023-02-28T07:01:58;-1.60;97.80
13472;DHT22;6808;49.444;11.034;2023-02-28T07:04:24;-1.80;97.70
13472;DHT22;6808;49.444;11.034;2023-02-28T07:06:49;-1.70;97.70
13472;DHT22;6808;49.444;11.034;2023-02-28T07:09:15;-1.70;97.70
13472;DHT22;6808;49.444;11.034;2023-02-28T07:11:41;-1.70;97.50
13472;DHT22;6808;49.444;11.034;2023-02-28T07:14:08;-1.60;97.40
13472;DHT22;6808;49.444;11.034;2023-02-28T07:16:35;-1.60;97.20
13472;DHT22;6808;49.444;11.034;2023-02-28T07:19:01;-1.60;97.10
13472;DHT22;6808;49.444;11.034;2023-02-28T07:21:26;-1.60;97.10
13472;DHT22;6808;49.444;11.034;2023-02-28T07:23:52;-1.50;97.20
13472;DHT22;6808;49.444;11.034;2023-02-28T07:26:19;-1.40;97.10
13472;DHT22;6808;49.444;11.034;2023-02-28T07:28:47;-1.30;96.90
13472;DHT22;6808;49.444;11.034;2023-02-28T07:31:13;-1.30;96.70
13472;DHT22;6808;49.444;11.034;2023-02-28T07:33:39;-1.20;96.50
13472;DHT22;6808;49.444;11.034;2023-02-28T07:36:11;-1.20;96.40
13472;DHT22;6808;49.444;11.034;2023-02-28T07:38:41;-1.10;96.30
13472;DHT22;6808;49.444;11.034;2023-02-28T07:41:08;-1.10;96.30
13472;DHT22;6808;49.444;11.034;2023-02-28T07:43:34;-1.00;96.20
13472;DHT22;6808;49.444;11.034;2023-02-28T07:46:05;-0.90;96.00
13472;DHT22;6808;49.444;11.034;2023-02-28T07:48:31;-0.90;95.80
13472;DHT22;6808;49.444;11.034;2023-02-28T07:50:58;-0.80;95.80
13472;DHT22;6808;49.444;11.034;2023-02-28T07:53:24;-0.70;95.80
13472;DHT22;6808;49.444;11.034;2023-02-28T07:55:50;-0.60;95.80
13472;DHT22;6808;49.444;11.034;2023-02-28T07:58:15;-0.50;95.30
13472;DHT22;6808;49.444;11.034;2023-02-28T08:00:41;-0.40;95.20
13472;DHT22;6808;49.444;11.034;2023-02-28T08:03:10;-0.30;95.00
13472;DHT22;6808;49.444;11.034;2023-02-28T08:05:40;-0.20;94.80
13472;DHT22;6808;49.444;11.034;2023-02-28T08:08:09;-0.20;94.70
13472;DHT22;6808;49.444;11.034;2023-02-28T08:10:35;-0.10;94.70
13472;DHT22;6808;49.444;11.034;2023-02-28T08:13:01;-0.10;94.60
13472;DHT22;6808;49.444;11.034;2023-02-28T08:15:27;-0.10;94.50
13472;DHT22;6808;49.444;11.034;2023-02-28T08:17:52;0.00;94.40
13472;DHT22;6808;49.444;11.034;2023-02-28T08:20:18;0.00;94.50
13472;DHT22;6808;49.444;11.034;2023-02-28T08:22:43;0.10;94.40
13472;DHT22;6808;49.444;11.034;2023-02-28T08:25:09;0.20;94.20
13472;DHT22;6808;49.444;11.034;2023-02-28T08:27:35;0.30;93.90
13472;DHT22;6808;49.444;11.034;2023-02-28T08:30:01;0.20;93.50
13472;DHT22;6808;49.444;11.034;2023-02-28T08:32:27;0.20;93.10
13472;DHT22;6808;49.444;11.034;2023-02-28T08:34:53;0.20;93.00
13472;DHT22;6808;49.444;11.034;2023-02-28T08:37:19;0.20;93.10
13472;DHT22;6808;49.444;11.034;2023-02-28T08:39:46;0.20;93.00
13472;DHT22;6808;49.444;11.034;2023-02-28T08:42:11;0.30;92.90
13472;DHT22;6808;49.444;11.034;2023-02-28T08:44:37;0.30;92.60
13472;DHT22;6808;49.444;11.034;2023-02-28T08:47:03;0.30;92.60
13472;DHT22;6808;49.444;11.034;2023-02-28T08:49:32;0.40;92.50
13472;DHT22;6808;49.444;11.034;2023-02-28T08:51:58;0.40;92.50
13472;DHT22;6808;49.444;11.034;2023-02-28T08:54:24;0.50;92.40
13472;DHT22;6808;49.444;11.034;2023-02-28T08:56:49;0.50;92.30
13472;DHT22;6808;49.444;11.034;2023-02-28T08:59:15;0.60;92.00
13472;DHT22;6808;49.444;11.034;2023-02-28T09:01:41;0.60;92.00
13472;DHT22;6808;49.444;11.034;2023-02-28T09:04:07;0.60;91.80
13472;DHT22;6808;49.444;11.034;2023-02-28T09:06:34;0.70;91.60
13472;DHT22;6808;49.444;11.034;2023-02-28T09:09:00;0.70;91.70
13472;DHT22;6808;49.444;11.034;2023-02-28T09:11:27;0.80;91.50
13472;DHT22;6808;49.444;11.034;2023-02-28T09:13:53;0.90;91.80
13472;DHT22;6808;49.444;11.034;2023-02-28T09:16:21;1.00;91.40
13472;DHT22;6808;49.444;11.034;2023-02-28T09:18:47;1.00;91.00
13472;DHT22;6808;49.444;11.034;2023-02-28T09:21:15;1.00;91.20
13472;DHT22;6808;49.444;11.034;2023-02-28T09:23:42;1.10;91.20
13472;DHT22;6808;49.444;11.034;2023-02-28T09:26:17;1.20;90.60
13472;DHT22;6808;49.444;11.034;2023-02-28T09:28:43;1.20;90.60
13472;DHT22;6808;49.444;11.034;2023-02-28T09:31:26;1.20;89.80
13472;DHT22;6808;49.444;11.034;2023-02-28T09:33:54;1.20;90.30
13472;DHT22;6808;49.444;11.034;2023-02-28T09:36:23;1.20;90.20
13472;DHT22;6808;49.444;11.034;2023-02-28T09:38:50;1.20;90.50
13472;DHT22;6808;49.444;11.034;2023-02-28T09:41:22;1.30;90.50
13472;DHT22;6808;49.444;11.034;2023-02-28T09:44:00;1.30;90.20
13472;DHT22;6808;49.444;11.034;2023-02-28T09:46:32;1.20;90.00
13472;DHT22;6808;49.444;11.034;2023-02-28T09:49:05;1.20;90.00
13472;DHT22;6808;49.444;11.034;2023-02-28T09:51:51;1.30;89.40
13472;DHT22;6808;49.444;11.034;2023-02-28T09:54:21;1.30;89.50
13472;DHT22;6808;49.444;11.034;2023-02-28T09:56:56;1.30;89.80
13472;DHT22;6808;49.444;11.034;2023-02-28T10:04:45;1.50;87.30
13472;DHT22;6808;49.444;11.034;2023-02-28T10:10:36;1.60;86.70
13472;DHT22;6808;49.444;11.034;2023-02-28T10:13:06;1.60;86.50
13472;DHT22;6808;49.444;11.034;2023-02-28T10:15:37;1.70;87.20
13472;DHT22;6808;49.444;11.034;2023-02-28T10:18:06;1.70;85.10
13472;DHT22;6808;49.444;11.034;2023-02-28T10:20:38;1.80;86.00
13472;DHT22;6808;49.444;11.034;2023-02-28T10:23:34;1.90;83.10
13472;DHT22;6808;49.444;11.034;2023-02-28T10:26:10;1.90;82.00
13472;DHT22;6808;49.444;11.034;2023-02-28T10:28:36;2.00;83.10
13472;DHT22;6808;49.444;11.034;2023-02-28T10:31:02;2.10;83.00
13472;DHT22;6808;49.444;11.034;2023-02-28T10:33:31;2.00;82.30
13472;DHT22;6808;49.444;11.034;2023-02-28T10:35:57;2.10;81.40
13472;DHT22;6808;49.444;11.034;2023-02-28T10:38:44;2.20;81.00
13472;DHT22;6808;49.444;11.034;2023-02-28T10:41:10;2.30;81.40
13472;DHT22;6808;49.444;11.034;2023-02-28T10:43:37;2.30;80.60
13472;DHT22;6808;49.444;11.034;2023-02-28T10:48:44;2.30;79.20
13472;DHT22;6808;49.444;11.034;2023-02-28T10:51:15;2.40;79.60
13472;DHT22;6808;49.444;11.034;2023-02-28T10:53:48;2.40;78.60
13472;DHT22;6808;49.444;11.034;2023-02-28T10:56:24;2.60;77.40
13472;DHT22;6808;49.444;11.034;2023-02-28T11:01:21;2.70;77.40
13472;DHT22;6808;49.444;11.034;2023-02-28T11:03:48;2.80;76.80
13472;DHT22;6808;49.444;11.034;2023-02-28T11:06:21;2.70;75.30
13472;DHT22;6808;49.444;11.034;2023-02-28T11:08:53;2.80;75.10
13472;DHT22;6808;49.444;11.034;2023-02-28T11:11:20;2.80;76.90
13472;DHT22;6808;49.444;11.034;2023-02-28T11:13:47;2.80;76.90
13472;DHT22;6808;49.444;11.034;2023-02-28T11:16:15;2.80;76.60
13472;DHT22;6808;49.444;11.034;2023-02-28T11:18:50;2.90;76.80
13472;DHT22;6808;49.444;11.034;2023-02-28T11:23:49;3.00;74.90
13472;DHT22;6808;49.444;11.034;2023-02-28T11:26:17;3.10;75.90
13472;DHT22;6808;49.444;11.034;2023-02-28T11:29:11;3.20;75.10
13472;DHT22;6808;49.444;11.034;2023-02-28T11:31:37;3.20;72.60
13472;DHT22;6808;49.444;11.034;2023-02-28T11:34:25;3.20;73.20
13472;DHT22;6808;49.444;11.034;2023-02-28T11:36:51;3.20;70.90
13472;DHT22;6808;49.444;11.034;2023-02-28T11:39:19;3.30;74.00
13472;DHT22;6808;49.444;11.034;2023-02-28T11:53:03;3.50;73.40
13472;DHT22;6808;49.444;11.034;2023-02-28T11:55:37;3.50;70.70
13472;DHT22;6808;49.444;11.034;2023-02-28T11:58:14;3.60;71.50
13472;DHT22;6808;49.444;11.034;2023-02-28T12:00:50;3.70;72.20
13472;DHT22;6808;49.444;11.034;2023-02-28T12:03:45;3.80;70.60
13472;DHT22;6808;49.444;11.034;2023-02-28T12:06:21;3.80;69.30
13472;DHT22;6808;49.444;11.034;2023-02-28T12:28:17;4.20;70.10
13472;DHT22;6808;49.444;11.034;2023-02-28T12:31:01;4.20;67.70
13472;DHT22;6808;49.444;11.034;2023-02-28T12:33:34;4.30;66.50
13472;DHT22;6808;49.444;11.034;2023-02-28T12:36:05;4.20;64.50
13472;DHT22;6808;49.444;11.034;2023-02-28T12:38:53;4.10;66.30
13472;DHT22;6808;49.444;11.034;2023-02-28T12:41:27;4.30;68.20
13472;DHT22;6808;49.444;11.034;2023-02-28T12:44:02;4.40;66.30
13472;DHT22;6808;49.444;11.034;2023-02-28T12:46:42;4.20;66.50
13472;DHT22;6808;49.444;11.034;2023-02-28T12:49:23;4.20;65.90
13472;DHT22;6808;49.444;11.034;2023-02-28T12:51:52;4.30;69.00
13472;DHT22;6808;49.444;11.034;2023-02-28T12:54:26;4.60;69.90
13472;DHT22;6808;49.444;11.034;2023-02-28T12:56:58;4.80;67.50
13472;DHT22;6808;49.444;11.034;2023-02-28T12:59:32;4.60;62.00
13472;DHT22;6808;49.444;11.034;2023-02-28T13:10:10;4.90;65.70
13472;DHT22;6808;49.444;11.034;2023-02-28T13:12:36;5.00;59.70
13472;DHT22;6808;49.444;11.034;2023-02-28T13:15:23;4.80;59.70
13472;DHT22;6808;49.444;11.034;2023-02-28T13:17:55;4.80;61.10
13472;DHT22;6808;49.444;11.034;2023-02-28T13:20:24;4.70;59.60
13472;DHT22;6808;49.444;11.034;2023-02-28T13:22:52;4.50;61.90
13472;DHT22;6808;49.444;11.034;2023-02-28T13:27:48;4.70;60.30
13472;DHT22;6808;49.444;11.034;2023-02-28T13:33:28;4.80;65.10
13472;DHT22;6808;49.444;11.034;2023-02-28T13:38:53;5.10;62.50
13472;DHT22;6808;49.444;11.034;2023-02-28T13:47:15;5.30;63.90
13472;DHT22;6808;49.444;11.034;2023-02-28T14:06:26;5.00;61.60
13472;DHT22;6808;49.444;11.034;2023-02-28T14:08:59;5.00;64.60
13472;DHT22;6808;49.444;11.034;2023-02-28T14:11:37;5.20;62.80
13472;DHT22;6808;49.444;11.034;2023-02-28T14:14:04;5.20;63.20
13472;DHT22;6808;49.444;11.034;2023-02-28T14:16:45;5.00;62.30
13472;DHT22;6808;49.444;11.034;2023-02-28T14:19:22;5.10;65.90
13472;DHT22;6808;49.444;11.034;2023-02-28T14:21:58;5.20;63.50
13472;DHT22;6808;49.444;11.034;2023-02-28T14:30:19;4.80;62.90
13472;DHT22;6808;49.444;11.034;2023-02-28T14:38:23;5.10;66.80
13472;DHT22;6808;49.444;11.034;2023-02-28T14:40:52;5.10;65.90
13472;DHT22;6808;49.444;11.034;2023-02-28T14:43:23;5.10;64.90
13472;DHT22;6808;49.444;11.034;2023-02-28T14:45:55;5.10;65.90
13472;DHT22;6808;49.444;11.034;2023-02-28T14:48:22;5.10;64.10
13472;DHT22;6808;49.444;11.034;2023-02-28T14:50:52;5.00;64.00
13472;DHT22;6808;49.444;11.034;2023-02-28T14:53:22;5.00;65.70
13472;DHT22;6808;49.444;11.034;2023-02-28T14:55:49;5.00;65.90
13472;DHT22;6808;49.444;11.034;2023-02-28T14:58:32;4.80;63.30
13472;DHT22;6808;49.444;11.034;2023-02-28T15:01:01;4.70;63.60
13472;DHT22;6808;49.444;11.034;2023-02-28T15:03:36;4.70;64.50
13472;DHT22;6808;49.444;11.034;2023-02-28T15:06:05;4.70;66.80
13472;DHT22;6808;49.444;11.034;2023-02-28T15:08:32;4.70;65.10
13472;DHT22;6808;49.444;11.034;2023-02-28T15:11:16;4.60;64.60
13472;DHT22;6808;49.444;11.034;2023-02-28T15:13:46;4.60;65.70
13472;DHT22;6808;49.444;11.034;2023-02-28T15:16:17;4.60;65.40
13472;DHT22;6808;49.444;11.034;2023-02-28T15:18:51;4.60;67.50
13472;DHT22;6808;49.444;11.034;2023-02-28T15:21:27;4.60;66.30
13472;DHT22;6808;49.444;11.034;2023-02-28T15:24:01;4.60;67.10
13472;DHT22;6808;49.444;11.034;2023-02-28T15:26:32;4.60;66.20
13472;DHT22;6808;49.444;11.034;2023-02-28T15:29:04;4.50;67.70
13472;DHT22;6808;49.444;11.034;2023-02-28T15:31:35;4.50;67.70
13472;DHT22;6808;49.444;11.034;2023-02-28T15:34:12;4.50;68.00
13472;DHT22;6808;49.444;11.034;2023-02-28T15:36:40;4.40;67.10
13472;DHT22;6808;49.444;11.034;2023-02-28T15:39:42;4.40;69.50
13472;DHT22;6808;49.444;11.034;2023-02-28T15:42:17;4.40;68.10
13472;DHT22;6808;49.444;11.034;2023-02-28T15:44:45;4.40;69.70
13472;DHT22;6808;49.444;11.034;2023-02-28T15:47:30;4.40;69.50
13472;DHT22;6808;49.444;11.034;2023-02-28T15:50:06;4.40;69.90
13472;DHT22;6808;49.444;11.034;2023-02-28T15:52:39;4.40;70.00
13472;DHT22;6808;49.444;11.034;2023-02-28T15:55:20;4.40;68.60
13472;DHT22;6808;49.444;11.034;2023-02-28T15:57:51;4.40;70.20
13472;DHT22;6808;49.444;11.034;2023-02-28T16:00:23;4.30;69.00
13472;DHT22;6808;49.444;11.034;2023-02-28T16:02:50;4.30;68.90
13472;DHT22;6808;49.444;11.034;2023-02-28T16:05:27;4.20;68.80
13472;DHT22;6808;49.444;11.034;2023-02-28T16:07:57;4.10;69.30
13472;DHT22;6808;49.444;11.034;2023-02-28T16:10:25;4.00;69.90
13472;DHT22;6808;49.444;11.034;2023-02-28T16:12:55;4.00;71.60
13472;DHT22;6808;49.444;11.034;2023-02-28T16:15:27;4.00;70.40
13472;DHT22;6808;49.444;11.034;2023-02-28T16:17:54;3.90;70.90
13472;DHT22;6808;49.444;11.034;2023-02-28T16:20:23;3.90;71.80
13472;DHT22;6808;49.444;11.034;2023-02-28T16:23:00;3.80;71.00
13472;DHT22;6808;49.444;11.034;2023-02-28T16:25:39;3.80;71.90
13472;DHT22;6808;49.444;11.034;2023-02-28T16:28:30;3.70;71.70
13472;DHT22;6808;49.444;11.034;2023-02-28T16:30:59;3.70;72.60
13472;DHT22;6808;49.444;11.034;2023-02-28T16:33:27;3.70;72.60
13472;DHT22;6808;49.444;11.034;2023-02-28T16:35:52;3.60;72.90
13472;DHT22;6808;49.444;11.034;2023-02-28T16:38:19;3.50;72.50
13472;DHT22;6808;49.444;11.034;2023-02-28T16:40:45;3.50;73.20
13472;DHT22;6808;49.444;11.034;2023-02-28T16:43:18;3.50;74.20
13472;DHT22;6808;49.444;11.034;2023-02-28T16:45:45;3.50;73.80
13472;DHT22;6808;49.444;11.034;2023-02-28T16:48:14;3.50;73.90
13472;DHT22;6808;49.444;11.034;2023-02-28T16:50:40;3.40;74.10
13472;DHT22;6808;49.444;11.034;2023-02-28T16:53:05;3.40;74.50
13472;DHT22;6808;49.444;11.034;2023-02-28T16:55:31;3.30;75.10
13472;DHT22;6808;49.444;11.034;2023-02-28T16:57:59;3.30;75.20
13472;DHT22;6808;49.444;11.034;2023-02-28T17:00:26;3.30;75.50
13472;DHT22;6808;49.444;11.034;2023-02-28T17:02:53;3.20;76.40
13472;DHT22;6808;49.444;11.034;2023-02-28T17:05:19;3.20;75.90
13472;DHT22;6808;49.444;11.034;2023-02-28T17:07:45;3.20;76.40
13472;DHT22;6808;49.444;11.034;2023-02-28T17:10:23;3.20;76.60
13472;DHT22;6808;49.444;11.034;2023-02-28T17:12:49;3.10;76.90
13472;DHT22;6808;49.444;11.034;2023-02-28T17:15:16;3.10;76.90
13472;DHT22;6808;49.444;11.034;2023-02-28T17:17:43;3.00;76.80
13472;DHT22;6808;49.444;11.034;2023-02-28T17:20:20;3.00;77.50
13472;DHT22;6808;49.444;11.034;2023-02-28T17:22:50;3.00;77.40
13472;DHT22;6808;49.444;11.034;2023-02-28T17:25:16;2.90;77.90
13472;DHT22;6808;49.444;11.034;2023-02-28T17:27:42;2.90;78.20
13472;DHT22;6808;49.444;11.034;2023-02-28T17:32:42;2.80;79.70
13472;DHT22;6808;49.444;11.034;2023-02-28T17:35:09;2.80;79.00
13472;DHT22;6808;49.444;11.034;2023-02-28T17:37:35;2.80;79.30
13472;DHT22;6808;49.444;11.034;2023-02-28T17:40:02;2.80;79.50
13472;DHT22;6808;49.444;11.034;2023-02-28T17:42:28;2.80;79.30
13472;DHT22;6808;49.444;11.034;2023-02-28T17:44:53;2.70;79.90
13472;DHT22;6808;49.444;11.034;2023-02-28T17:47:19;2.70;79.60
13472;DHT22;6808;49.444;11.034;2023-02-28T17:49:44;2.70;79.90
13472;DHT22;6808;49.444;11.034;2023-02-28T17:52:10;2.60;80.10
13472;DHT22;6808;49.444;11.034;2023-02-28T17:54:35;2.60;80.30